Impacts METAR Board
IDs:

KSEA - Seattle-Tacoma Intl, WA, US

Updated at: 0300 UTC 17 Jul 2018
Potential Impact None Slight Moderate High
Time 16/15Z 16/16Z 16/17Z 16/18Z 16/19Z 16/20Z 16/21Z 16/22Z 16/23Z 17/00Z 17/01Z 17/02Z 17/03Z
Temp68 71 74 78 81 85 89 90 91 91 91 89 87
Dewpt52 53 52 51 51 50 47 44 43 45 43 42 41
Altim30.04 30.04 30.05 30.04 30.04 30.03 30.02 30.01 30.00 29.99 29.97 29.96 29.96
VIS10 10 10 10 10 10 10 10 10 10 10 10 10
CIG-- -- -- -- -- -- -- -- -- -- -- -- --
CoverFEWFEWFEWFEWFEWFEWFEWFEWFEWFEWFEWFEWFEW
FltCatVFRVFRVFRVFRVFRVFRVFRVFRVFRVFRVFRVFRVFR
WX--------------------------
WDir30029029027031029034010360360360340330
WSpd4 5 7 7 6 8 8 11 11 10 11 9 8
WGst-- -- -- -- -- -- -- -- -- -- -- -- --
Raw hourly METARs
KSEA 161453Z 30004KT 10SM FEW200 20/11 A3004 RMK AO2 SLP176 T02000111 51010
KSEA 161553Z 29005KT 10SM FEW200 22/12 A3004 RMK AO2 SLP177 T02170117
KSEA 161653Z 29007KT 10SM FEW200 23/11 A3005 RMK AO2 SLP179 T02330111
KSEA 161753Z 27007KT 10SM FEW200 26/11 A3004 RMK AO2 SLP175 T02560106 10256 20172 50000
KSEA 161853Z 31006KT 10SM FEW200 27/11 A3004 RMK AO2 SLP174 T02720106
KSEA 161953Z 29008KT 10SM FEW200 29/10 A3003 RMK AO2 SLP171 T02940100
KSEA 162053Z 34008KT 10SM FEW200 32/08 A3002 RMK AO2 WSHFT 2008 SLP167 T03170083 58008
KSEA 162153Z 01011KT 10SM FEW200 32/07 A3001 RMK AO2 SLP165 T03220067
KSEA 162253Z 36011KT 10SM FEW250 33/06 A3000 RMK AO2 SLP161 T03280061
KSEA 162353Z 36010KT 10SM FEW250 33/07 A2999 RMK AO2 SLP156 T03280072 10333 20250 58010
KSEA 170053Z 36011KT 10SM FEW250 33/06 A2997 RMK AO2 SLP152 T03280061
KSEA 170153Z 34009KT 10SM FEW250 32/06 A2996 RMK AO2 SLP149 T03170056
KSEA 170253Z 33008KT 10SM FEW250 31/05 A2996 RMK AO2 SLP149 T03060050 55007



Page loaded:  03:56 UTC  |   08:56 PM Pacific  |   09:56 PM Mountain  |   10:56 PM Central  |   11:56 PM Eastern

 

ADVISORIES

FORECASTS

FORECASTS

OBSERVATIONS

USER TOOLS

ABOUT US